Time;durP1;ratioP1;P1;durP2;ratioP2;P2;SDS_P1;SDS_P2;PMS_P1;PMS_P2;Temp;Humidity;BMP_temperature;BMP_pressure;BME280_temperature;BME280_humidity;BME280_pressure;Samples;Min_cycle;Max_cycle;Signal;HPM_P1;HPM_P2
2022/11/09 00:00:12;;;;;;;;;;;;;;;10.96;100.00;100288.81;4517901;31;35040;-79
2022/11/09 00:02:58;;;;;;;;;;;;;;;10.53;100.00;100286.12;4494488;31;35175;-79
2022/11/09 00:05:53;;;;;;;;;;;;;;;10.90;100.00;100279.03;4517861;31;34897;-79
2022/11/09 00:08:39;;;;;;;;;;;;;;;10.79;100.00;100278.38;4505832;31;34168;-79
2022/11/09 00:11:25;;;;;;;;;;;;;;;10.58;100.00;100284.13;4504115;31;34968;-79
2022/11/09 00:14:15;;;;;;;;;;;;;;;10.92;100.00;100282.28;4517522;31;35317;-79
2022/11/09 00:17:01;;;;;;;;;;;;;;;10.71;100.00;100277.13;4505729;31;34949;-78
2022/11/09 00:19:47;;;;;;;;;;;;;;;10.77;100.00;100269.62;4517740;31;34870;-79
2022/11/09 00:22:32;;;;;;;;;;;;;;;11.12;100.00;100265.50;4517674;31;35903;-79
2022/11/09 00:25:18;;;;;;;;;;;;;;;10.86;100.00;100267.03;4505511;31;36159;-79
2022/11/09 00:28:04;;;;;;;;;;;;;;;10.87;100.00;100266.75;4517626;31;34890;-79
2022/11/09 00:30:50;;;;;;;;;;;;;;;10.92;100.00;100271.31;4505381;31;34092;-79
2022/11/09 00:33:36;;;;;;;;;;;;;;;10.66;100.00;100268.16;4517331;31;35068;-79
2022/11/09 00:36:24;;;;;;;;;;;;;;;10.39;100.00;100280.56;4517367;31;35354;-78
2022/11/09 00:39:10;;;;;;;;;;;;;;;10.84;100.00;100275.53;4517390;31;35071;-79
2022/11/09 00:41:56;;;;;;;;;;;;;;;10.70;100.00;100271.91;4505277;31;34150;-79
2022/11/09 00:44:42;;;;;;;;;;;;;;;10.66;100.00;100274.44;4517079;31;34953;-79
2022/11/09 00:47:29;;;;;;;;;;;;;;;10.79;100.00;100265.50;4517300;31;34038;-78
2022/11/09 00:50:15;;;;;;;;;;;;;;;10.42;100.00;100271.78;4517218;31;34984;-79
2022/11/09 00:53:01;;;;;;;;;;;;;;;10.51;100.00;100271.94;4517264;31;34114;-79
2022/11/09 00:55:54;;;;;;;;;;;;;;;9.97;100.00;100267.66;4504962;31;35008;-79
2022/11/09 00:58:40;;;;;;;;;;;;;;;10.56;100.00;100263.66;4517049;31;36183;-79
2022/11/09 01:01:27;;;;;;;;;;;;;;;10.69;100.00;100267.56;4517078;31;34926;-79
2022/11/09 01:04:13;;;;;;;;;;;;;;;10.77;100.00;100266.88;4505006;31;34145;-79
2022/11/09 01:06:59;;;;;;;;;;;;;;;10.74;100.00;100260.06;4504800;31;34976;-79
2022/11/09 01:09:46;;;;;;;;;;;;;;;10.95;100.00;100259.75;4516921;31;35332;-78
2022/11/09 01:12:31;;;;;;;;;;;;;;;10.56;100.00;100260.91;4516953;31;34953;-78
2022/11/09 01:15:17;;;;;;;;;;;;;;;10.55;100.00;100253.78;4504738;31;34962;-79
2022/11/09 01:18:03;;;;;;;;;;;;;;;10.79;100.00;100254.53;4516740;31;34954;-77
2022/11/09 01:20:49;;;;;;;;;;;;;;;10.60;100.00;100248.22;4516825;31;36193;-78
2022/11/09 01:23:35;;;;;;;;;;;;;;;10.72;100.00;100248.59;4518362;31;35546;-79
2022/11/09 01:26:22;;;;;;;;;;;;;;;10.54;100.00;100249.41;4495676;31;34747;-79
2022/11/09 01:29:08;;;;;;;;;;;;;;;10.37;100.00;100249.91;4507163;31;35799;-78
2022/11/09 01:31:55;;;;;;;;;;;;;;;10.60;100.00;100250.97;4506700;31;35253;-78
2022/11/09 01:34:41;;;;;;;;;;;;;;;10.70;100.00;100248.09;4518924;31;35045;-79
2022/11/09 01:37:27;;;;;;;;;;;;;;;10.67;100.00;100243.19;4519073;31;34043;-78
2022/11/09 01:40:13;;;;;;;;;;;;;;;10.67;100.00;100239.63;4519004;31;35966;-78
2022/11/09 01:43:19;;;;;;;;;;;;;;;10.49;100.00;100241.25;4518800;31;35271;-78
2022/11/09 01:46:11;;;;;;;;;;;;;;;10.35;100.00;100236.50;4518937;31;34947;-78
2022/11/09 01:48:59;;;;;;;;;;;;;;;10.60;100.00;100229.03;4502907;31;34124;-78
2022/11/09 01:51:47;;;;;;;;;;;;;;;10.37;100.00;100238.97;4503043;31;35027;-78
2022/11/09 01:54:38;;;;;;;;;;;;;;;10.44;100.00;100233.09;4490712;31;35205;-78
2022/11/09 01:57:31;;;;;;;;;;;;;;;10.11;100.00;100227.50;4509377;31;34879;-78
2022/11/09 02:00:17;;;;;;;;;;;;;;;10.40;100.00;100221.94;4506874;31;34799;-78
2022/11/09 02:03:04;;;;;;;;;;;;;;;10.51;100.00;100231.62;4495493;31;35833;-78
2022/11/09 02:05:50;;;;;;;;;;;;;;;10.18;100.00;100230.69;4495713;31;35243;-77
2022/11/09 02:08:37;;;;;;;;;;;;;;;10.26;100.00;100226.47;4492936;31;34838;-77
2022/11/09 02:11:23;;;;;;;;;;;;;;;10.08;100.00;100220.69;4506655;31;34905;-78
2022/11/09 02:14:09;;;;;;;;;;;;;;;10.14;100.00;100218.69;4506598;31;35778;-77
2022/11/09 02:16:55;;;;;;;;;;;;;;;10.14;100.00;100224.97;4506403;31;35179;-77
2022/11/09 02:19:41;;;;;;;;;;;;;;;10.42;100.00;100224.38;4506384;31;35711;-77
2022/11/09 02:22:27;;;;;;;;;;;;;;;10.32;100.00;100219.84;4518620;31;34197;-77
2022/11/09 02:25:13;;;;;;;;;;;;;;;10.44;100.00;100217.47;4490694;31;35892;-77
2022/11/09 02:27:59;;;;;;;;;;;;;;;10.45;100.00;100221.06;4501105;31;36225;-77
2022/11/09 02:30:47;;;;;;;;;;;;;;;10.64;100.00;100216.37;4518635;31;34920;-77
2022/11/09 02:33:43;;;;;;;;;;;;;;;10.33;100.00;100216.00;4506097;31;34959;-77
2022/11/09 02:36:30;;;;;;;;;;;;;;;10.38;100.00;100215.12;4518526;31;34945;-77
2022/11/09 02:39:19;;;;;;;;;;;;;;;9.93;100.00;100218.12;4518574;31;36437;-77
2022/11/09 02:46:32;;;;;;;;;;;;;;;9.96;100.00;100216.72;4471020;32;34098;-77
2022/11/09 02:49:18;;;;;;;;;;;;;;;9.77;100.00;100211.22;4470007;32;34920;-77
2022/11/09 02:52:04;;;;;;;;;;;;;;;10.01;100.00;100212.00;4471201;32;35172;-77
2022/11/09 02:54:50;;;;;;;;;;;;;;;9.84;100.00;100204.25;4470901;32;34946;-77
2022/11/09 02:57:36;;;;;;;;;;;;;;;9.93;100.00;100190.75;4470396;32;34126;-76
2022/11/09 03:00:22;;;;;;;;;;;;;;;9.69;100.00;100190.78;4478882;32;35015;-76
2022/11/09 03:03:09;;;;;;;;;;;;;;;9.40;100.00;100202.59;4486510;32;36132;-76
2022/11/09 03:05:56;;;;;;;;;;;;;;;9.68;100.00;100202.84;4486558;32;34997;-76
2022/11/09 03:08:43;;;;;;;;;;;;;;;9.91;100.00;100207.47;4486517;32;34258;-76
2022/11/09 03:11:29;;;;;;;;;;;;;;;10.16;100.00;100216.50;4486425;32;35696;-77
2022/11/09 03:14:17;;;;;;;;;;;;;;;9.95;100.00;100226.06;4485620;32;36095;-76
2022/11/09 03:17:03;;;;;;;;;;;;;;;9.98;100.00;100220.81;4485413;32;34950;-77
2022/11/09 03:19:50;;;;;;;;;;;;;;;9.88;100.00;100218.22;4484867;32;34121;-76
2022/11/09 03:22:36;;;;;;;;;;;;;;;9.95;100.00;100213.19;4486431;32;35781;-76
2022/11/09 03:25:22;;;;;;;;;;;;;;;9.98;100.00;100215.31;4485390;32;35159;-76
2022/11/09 03:28:09;;;;;;;;;;;;;;;9.80;100.00;100222.38;4486415;32;34992;-76
2022/11/09 03:30:56;;;;;;;;;;;;;;;9.96;100.00;100219.47;4486503;32;34192;-76
2022/11/09 03:33:43;;;;;;;;;;;;;;;10.33;100.00;100216.00;4486118;32;35029;-76
2022/11/09 03:36:29;;;;;;;;;;;;;;;9.77;100.00;100224.91;4485452;32;36105;-76
2022/11/09 03:39:16;;;;;;;;;;;;;;;10.13;100.00;100223.37;4485264;32;34977;-76
2022/11/09 03:42:02;;;;;;;;;;;;;;;9.85;100.00;100216.06;4476644;32;34140;-76
2022/11/09 03:44:48;;;;;;;;;;;;;;;9.96;100.00;100216.72;4496967;31;34998;-76
2022/11/09 03:47:34;;;;;;;;;;;;;;;10.17;100.00;100217.28;4501840;31;35161;-77
2022/11/09 03:50:20;;;;;;;;;;;;;;;9.80;100.00;100214.19;4502126;31;35751;-76
2022/11/09 03:53:07;;;;;;;;;;;;;;;9.77;100.00;100209.28;4502047;31;34113;-76
2022/11/09 03:55:55;;;;;;;;;;;;;;;10.23;100.00;100207.91;4479224;31;34994;-76
2022/11/09 03:58:41;;;;;;;;;;;;;;;9.86;100.00;100210.28;4491628;31;35947;-76
2022/11/09 04:01:28;;;;;;;;;;;;;;;9.82;100.00;100203.75;4505556;31;34960;-76
2022/11/09 04:04:14;;;;;;;;;;;;;;;9.40;100.00;100205.31;4517974;31;35057;-76
2022/11/09 04:07:00;;;;;;;;;;;;;;;9.85;100.00;100205.91;4505651;31;34895;-76
2022/11/09 04:09:47;;;;;;;;;;;;;;;9.73;100.00;100208.22;4517709;31;35332;-76
2022/11/09 04:12:32;;;;;;;;;;;;;;;9.96;100.00;100213.97;4517674;31;35837;-76
2022/11/09 04:15:19;;;;;;;;;;;;;;;9.80;100.00;100203.22;4505292;31;34971;-75
2022/11/09 04:18:05;;;;;;;;;;;;;;;9.65;100.00;100211.62;4505271;31;34996;-76
2022/11/09 04:20:50;;;;;;;;;;;;;;;10.00;100.00;100209.56;4501734;31;36153;-76
2022/11/09 04:23:36;;;;;;;;;;;;;;;9.43;100.00;100199.25;4502775;31;34926;-75
2022/11/09 04:26:23;;;;;;;;;;;;;;;9.67;100.00;100204.72;4517613;31;35077;-76
2022/11/09 04:29:09;;;;;;;;;;;;;;;9.84;100.00;100211.66;4505306;31;35875;-75
2022/11/09 04:31:55;;;;;;;;;;;;;;;9.91;100.00;100204.75;4505290;31;35264;-76
2022/11/09 04:34:41;;;;;;;;;;;;;;;9.85;100.00;100200.44;4505254;31;34907;-77
2022/11/09 04:37:27;;;;;;;;;;;;;;;9.96;100.00;100200.31;4517293;31;34155;-76
2022/11/09 04:40:13;;;;;;;;;;;;;;;9.84;100.00;100197.97;4517162;31;35811;-76
2022/11/09 04:42:59;;;;;;;;;;;;;;;9.84;100.00;100198.78;4517094;31;35220;-76
2022/11/09 04:45:46;;;;;;;;;;;;;;;9.90;100.00;100197.66;4504787;31;34923;-76
2022/11/09 04:48:32;;;;;;;;;;;;;;;9.85;100.00;100199.63;4513827;31;34974;-75
2022/11/09 04:51:18;;;;;;;;;;;;;;;9.55;100.00;100204.34;4504768;31;35755;-76
2022/11/09 04:54:05;;;;;;;;;;;;;;;9.76;100.00;100202.19;4501324;31;36369;-75
2022/11/09 04:56:51;;;;;;;;;;;;;;;9.77;100.00;100197.53;4507854;31;35077;-74
2022/11/09 04:59:36;;;;;;;;;;;;;;;9.66;100.00;100202.31;4519169;31;34221;-76
2022/11/09 05:02:22;;;;;;;;;;;;;;;9.65;100.00;100196.03;4519090;31;35001;-75
2022/11/09 05:05:09;;;;;;;;;;;;;;;9.86;100.00;100196.59;4519149;31;35290;-75
2022/11/09 05:07:55;;;;;;;;;;;;;;;9.82;100.00;100201.03;4518859;31;34978;-75
2022/11/09 05:10:41;;;;;;;;;;;;;;;9.42;100.00;100188.59;4506882;31;34063;-76
2022/11/09 05:13:27;;;;;;;;;;;;;;;9.59;100.00;100190.88;4495831;31;35800;-76
2022/11/09 05:16:13;;;;;;;;;;;;;;;9.39;100.00;100187.28;4506861;31;35310;-75
2022/11/09 05:18:59;;;;;;;;;;;;;;;9.61;100.00;100188.69;4495849;31;34904;-75
2022/11/09 05:21:45;;;;;;;;;;;;;;;9.81;100.00;100188.44;4518952;31;34969;-76
2022/11/09 05:24:31;;;;;;;;;;;;;;;9.38;100.00;100179.34;4518593;31;35078;-75
2022/11/09 05:27:18;;;;;;;;;;;;;;;9.34;100.00;100183.78;4506824;31;35251;-75
2022/11/09 05:30:04;;;;;;;;;;;;;;;9.74;100.00;100190.72;4518968;31;34979;-75
2022/11/09 05:32:50;;;;;;;;;;;;;;;9.84;100.00;100197.97;4518917;31;34099;-74
2022/11/09 05:35:36;;;;;;;;;;;;;;;9.26;100.00;100204.38;4506489;31;34855;-76
2022/11/09 05:38:23;;;;;;;;;;;;;;;9.20;100.00;100205.53;4506692;31;35253;-75
2022/11/09 05:41:09;;;;;;;;;;;;;;;9.56;100.00;100196.94;4506654;31;34957;-75
2022/11/09 05:43:56;;;;;;;;;;;;;;;9.58;100.00;100205.69;4506996;31;34154;-78
2022/11/09 05:46:41;;;;;;;;;;;;;;;9.57;100.00;100206.78;4517956;31;35687;-77
2022/11/09 05:49:28;;;;;;;;;;;;;;;9.58;100.00;100200.22;4506753;31;35180;-78
2022/11/09 05:52:14;;;;;;;;;;;;;;;9.18;100.00;100202.25;4506817;31;34966;-78
2022/11/09 05:55:01;;;;;;;;;;;;;;;9.62;100.00;100201.25;4506757;31;34931;-77
2022/11/09 05:57:47;;;;;;;;;;;;;;;9.23;100.00;100210.41;4518893;31;35748;-78
2022/11/09 06:00:34;;;;;;;;;;;;;;;9.44;100.00;100205.53;4518895;31;35424;-78
2022/11/09 06:03:20;;;;;;;;;;;;;;;9.64;100.00;100216.25;4501304;31;35185;-80
2022/11/09 06:06:06;;;;;;;;;;;;;;;9.29;100.00;100213.91;4498468;31;33909;-79
2022/11/09 06:08:54;;;;;;;;;;;;;;;9.38;100.00;100209.44;4498744;31;34186;-79
2022/11/09 06:11:40;;;;;;;;;;;;;;;9.35;100.00;100205.38;4496449;31;36044;-79
2022/11/09 06:14:26;;;;;;;;;;;;;;;9.42;100.00;100213.22;4498818;31;36565;-80
2022/11/09 06:17:12;;;;;;;;;;;;;;;9.47;100.00;100207.69;4496983;31;33414;-79
2022/11/09 06:19:58;;;;;;;;;;;;;;;9.57;100.00;100212.25;4499287;31;34270;-79
2022/11/09 06:22:44;;;;;;;;;;;;;;;9.67;100.00;100215.69;4496457;31;35274;-78
2022/11/09 06:25:31;;;;;;;;;;;;;;;9.29;100.00;100220.19;4496135;31;35045;-79
2022/11/09 06:28:17;;;;;;;;;;;;;;;9.34;100.00;100217.41;4485677;31;34449;-78
2022/11/09 06:31:03;;;;;;;;;;;;;;;9.49;100.00;100223.84;4495424;31;35008;-79
2022/11/09 06:33:50;;;;;;;;;;;;;;;9.59;100.00;100226.44;4496048;31;35629;-79
2022/11/09 06:36:36;;;;;;;;;;;;;;;9.41;100.00;100234.28;4497086;31;35046;-79
2022/11/09 06:39:22;;;;;;;;;;;;;;;9.43;100.00;100223.06;4497185;31;33630;-79
2022/11/09 06:42:08;;;;;;;;;;;;;;;9.13;100.00;100221.44;4498339;31;36092;-78
2022/11/09 06:44:54;;;;;;;;;;;;;;;9.38;100.00;100221.19;4485652;31;33894;-79
2022/11/09 06:47:41;;;;;;;;;;;;;;;9.18;100.00;100219.47;4485324;31;34867;-79
2022/11/09 06:50:27;;;;;;;;;;;;;;;8.92;100.00;100216.13;4498772;31;33724;-79
2022/11/09 06:53:14;;;;;;;;;;;;;;;9.19;100.00;100225.75;4485717;31;34740;-78
2022/11/09 06:56:00;;;;;;;;;;;;;;;8.96;100.00;100228.13;4484156;31;35172;-78
2022/11/09 06:58:47;;;;;;;;;;;;;;;9.27;100.00;100227.84;4488447;31;34100;-78
2022/11/09 07:01:33;;;;;;;;;;;;;;;8.93;100.00;100228.69;4498588;31;33579;-79
2022/11/09 07:04:19;;;;;;;;;;;;;;;8.81;100.00;100225.53;4498389;31;35551;-78
2022/11/09 07:07:06;;;;;;;;;;;;;;;9.03;100.00;100216.87;4498394;31;34882;-78
2022/11/09 07:09:52;;;;;;;;;;;;;;;8.78;100.00;100232.38;4499291;31;34472;-78
2022/11/09 07:12:38;;;;;;;;;;;;;;;9.16;100.00;100223.59;4499143;31;33861;-78
2022/11/09 07:15:24;;;;;;;;;;;;;;;8.83;100.00;100228.78;4498853;31;34393;-79
2022/11/09 07:18:11;;;;;;;;;;;;;;;9.10;100.00;100230.19;4477759;31;34423;-80
2022/11/09 07:20:58;;;;;;;;;;;;;;;9.28;100.00;100229.50;4488390;31;34360;-78
2022/11/09 07:23:45;;;;;;;;;;;;;;;8.83;100.00;100234.25;4499288;31;34831;-79
2022/11/09 07:26:31;;;;;;;;;;;;;;;9.07;100.00;100231.59;4485509;31;34556;-79
2022/11/09 07:29:17;;;;;;;;;;;;;;;9.13;100.00;100227.72;4488394;31;34857;-78
2022/11/09 07:32:03;;;;;;;;;;;;;;;8.98;100.00;100230.59;4497449;31;33589;-78
2022/11/09 07:34:49;;;;;;;;;;;;;;;9.09;100.00;100225.84;4497378;31;33400;-79
2022/11/09 07:37:35;;;;;;;;;;;;;;;9.01;100.00;100230.00;4488756;31;35155;-78
2022/11/09 07:40:21;;;;;;;;;;;;;;;9.12;100.00;100225.28;4496856;31;34473;-79
2022/11/09 07:43:07;;;;;;;;;;;;;;;9.26;100.00;100230.91;4497235;31;35240;-78
2022/11/09 07:45:54;;;;;;;;;;;;;;;8.99;100.00;100222.09;4488664;31;32571;-79
2022/11/09 07:48:41;;;;;;;;;;;;;;;9.16;100.00;100229.91;4496550;31;34847;-79
2022/11/09 07:51:27;;;;;;;;;;;;;;;9.20;100.00;100238.34;4486018;31;34520;-79
2022/11/09 07:54:13;;;;;;;;;;;;;;;9.47;100.00;100237.78;4496843;31;33352;-79
2022/11/09 07:56:58;;;;;;;;;;;;;;;9.17;100.00;100238.91;4486438;31;34026;-78
2022/11/09 07:59:45;;;;;;;;;;;;;;;9.29;100.00;100235.78;4496867;31;35018;-78
2022/11/09 08:02:31;;;;;;;;;;;;;;;9.36;100.00;100231.62;4496410;31;36142;-79
2022/11/09 08:05:17;;;;;;;;;;;;;;;9.28;100.00;100234.97;4496985;31;35334;-79
2022/11/09 08:08:04;;;;;;;;;;;;;;;9.41;100.00;100234.28;4488060;31;33012;-79
2022/11/09 08:10:51;;;;;;;;;;;;;;;9.49;100.00;100232.03;4495912;31;34948;-79
2022/11/09 08:13:37;;;;;;;;;;;;;;;9.20;100.00;100232.88;4512390;31;35735;-78
2022/11/09 08:16:23;;;;;;;;;;;;;;;9.55;100.00;100222.69;4512318;31;34796;-80
2022/11/09 08:19:09;;;;;;;;;;;;;;;8.94;100.00;100224.88;4500021;31;34125;-78
2022/11/09 08:21:56;;;;;;;;;;;;;;;9.24;100.00;100218.31;4512089;31;35042;-78
2022/11/09 08:24:44;;;;;;;;;;;;;;;9.28;100.00;100218.56;4512741;31;35969;-79
2022/11/09 08:27:30;;;;;;;;;;;;;;;9.48;100.00;100214.81;4511721;31;34968;-79
2022/11/09 08:30:17;;;;;;;;;;;;;;;9.49;100.00;100212.91;4511950;31;34096;-78
2022/11/09 08:33:04;;;;;;;;;;;;;;;9.58;100.00;100219.34;4500684;31;34931;-79
2022/11/09 08:35:49;;;;;;;;;;;;;;;9.48;100.00;100217.56;4513412;31;35764;-78
2022/11/09 08:38:38;;;;;;;;;;;;;;;9.54;100.00;100221.06;4513938;31;34951;-78
2022/11/09 08:41:24;;;;;;;;;;;;;;;9.84;100.00;100222.63;4490630;31;35914;-78
2022/11/09 08:44:10;;;;;;;;;;;;;;;9.95;100.00;100220.56;4513747;31;35816;-78
2022/11/09 08:46:56;;;;;;;;;;;;;;;9.80;100.00;100216.09;4501595;31;35190;-78
2022/11/09 08:49:43;;;;;;;;;;;;;;;9.38;100.00;100218.47;4501810;31;36323;-79
2022/11/09 08:52:29;;;;;;;;;;;;;;;9.84;100.00;100226.16;4501319;31;34124;-78
2022/11/09 08:55:15;;;;;;;;;;;;;;;9.81;100.00;100225.94;4513266;31;34935;-79
2022/11/09 08:58:02;;;;;;;;;;;;;;;9.68;100.00;100217.31;4513880;31;34811;-78
2022/11/09 09:00:48;;;;;;;;;;;;;;;9.37;100.00;100211.38;4501743;31;36556;-78
2022/11/09 09:03:34;;;;;;;;;;;;;;;9.70;100.00;100225.22;4513317;31;34164;-78
2022/11/09 09:06:20;;;;;;;;;;;;;;;9.49;100.00;100221.09;4501363;31;35791;-78
2022/11/09 09:09:10;;;;;;;;;;;;;;;9.88;100.00;100221.75;4513550;31;36199;-78
2022/11/09 09:11:56;;;;;;;;;;;;;;;10.24;100.00;100225.94;4512956;31;34849;-78
2022/11/09 09:14:42;;;;;;;;;;;;;;;9.93;100.00;100218.12;4501368;31;33627;-78
2022/11/09 09:17:28;;;;;;;;;;;;;;;10.13;100.00;100220.63;4509789;31;35444;-79
2022/11/09 09:20:16;;;;;;;;;;;;;;;10.29;100.00;100225.91;4490595;31;34692;-79
2022/11/09 09:23:02;;;;;;;;;;;;;;;10.34;100.00;100223.13;4512519;31;37756;-78
2022/11/09 09:25:48;;;;;;;;;;;;;;;9.84;100.00;100219.87;4513674;31;33876;-78
2022/11/09 09:28:35;;;;;;;;;;;;;;;10.03;100.00;100217.19;4513354;31;34982;-78
2022/11/09 09:31:21;;;;;;;;;;;;;;;10.20;100.00;100212.03;4513162;31;35943;-78
2022/11/09 09:34:07;;;;;;;;;;;;;;;9.79;100.00;100219.94;4501040;31;36102;-79
2022/11/09 09:36:53;;;;;;;;;;;;;;;9.85;100.00;100222.34;4501169;31;33673;-79
2022/11/09 09:39:39;;;;;;;;;;;;;;;10.29;100.00;100214.97;4513556;31;34465;-79
2022/11/09 09:42:35;;;;;;;;;;;;;;;9.86;100.00;100218.47;4513366;31;35133;-78
2022/11/09 09:45:33;;;;;;;;;;;;;;;9.94;100.00;100214.28;4490624;31;34951;-79
2022/11/09 09:48:37;;;;;;;;;;;;;;;10.12;100.00;100213.50;4491002;31;33855;-79
2022/11/09 09:51:28;;;;;;;;;;;;;;;10.22;100.00;100209.81;4501326;31;34680;-79
2022/11/09 09:54:16;;;;;;;;;;;;;;;10.01;100.00;100203.78;4489684;31;35155;-79
2022/11/09 09:57:02;;;;;;;;;;;;;;;10.35;100.00;100202.81;4490010;31;35319;-80
2022/11/09 09:59:49;;;;;;;;;;;;;;;10.18;100.00;100203.28;4513424;31;33628;-79
2022/11/09 10:02:36;;;;;;;;;;;;;;;10.09;100.00;100194.94;4501331;31;34621;-79
2022/11/09 10:05:38;;;;;;;;;;;;;;;10.39;100.00;100194.81;4501039;31;35767;-79
2022/11/09 10:08:24;;;;;;;;;;;;;;;10.27;100.00;100190.59;4500233;31;33516;-78
2022/11/09 10:11:24;;;;;;;;;;;;;;;10.25;100.00;100190.06;4513311;31;34132;-79
2022/11/09 10:14:14;;;;;;;;;;;;;;;10.32;100.00;100185.06;4489562;31;34955;-80
2022/11/09 10:17:16;;;;;;;;;;;;;;;10.56;100.00;100178.69;4500482;31;36203;-80
2022/11/09 10:20:05;;;;;;;;;;;;;;;10.73;100.00;100169.91;4513178;31;35030;-80
2022/11/09 10:22:51;;;;;;;;;;;;;;;10.77;100.00;100180.00;4513193;31;34846;-79
2022/11/09 10:25:37;;;;;;;;;;;;;;;10.31;100.00;100182.63;4512437;31;34634;-80
2022/11/09 10:28:44;;;;;;;;;;;;;;;10.53;100.00;100184.75;4503550;31;35221;-80
2022/11/09 10:31:51;;;;;;;;;;;;;;;10.44;100.00;100186.53;4492013;31;34877;-81
2022/11/09 10:34:39;;;;;;;;;;;;;;;10.73;100.00;100178.12;4490127;31;34753;-80
2022/11/09 10:37:47;;;;;;;;;;;;;;;10.37;100.00;100181.44;4500041;31;34911;-80
2022/11/09 10:40:42;;;;;;;;;;;;;;;10.57;100.00;100183.06;4512988;31;34764;-81
2022/11/09 10:43:46;;;;;;;;;;;;;;;10.89;100.00;100178.72;4502862;31;34560;-81
2022/11/09 10:47:03;;;;;;;;;;;;;;;10.47;100.00;100169.50;4512487;31;34950;-81
2022/11/09 10:50:24;;;;;;;;;;;;;;;10.57;100.00;100155.66;4512361;31;35365;-81
2022/11/09 10:53:29;;;;;;;;;;;;;;;10.39;100.00;100164.69;4512331;31;35760;-81
2022/11/09 10:56:34;;;;;;;;;;;;;;;10.67;100.00;100155.50;4490652;31;34864;-80
2022/11/09 10:59:58;;;;;;;;;;;;;;;11.00;100.00;100158.22;4505476;31;34582;-80
2022/11/09 11:03:15;;;;;;;;;;;;;;;10.77;100.00;100155.31;4502485;31;34631;-81
2022/11/09 11:06:20;;;;;;;;;;;;;;;10.80;100.00;100148.44;4502802;31;35942;-81
2022/11/09 11:09:26;;;;;;;;;;;;;;;11.03;100.00;100149.41;4512843;31;34933;-81
2022/11/09 11:12:30;;;;;;;;;;;;;;;11.37;100.00;100137.25;4502928;31;34571;-81
2022/11/09 11:15:37;;;;;;;;;;;;;;;11.10;100.00;100141.59;4502636;31;34878;-81
2022/11/09 11:18:43;;;;;;;;;;;;;;;11.06;100.00;100143.31;4502115;31;36184;-81
2022/11/09 11:21:58;;;;;;;;;;;;;;;10.98;100.00;100142.06;4490851;31;34607;-80
2022/11/09 11:25:10;;;;;;;;;;;;;;;11.16;100.00;100134.91;4502292;31;34101;-81
2022/11/09 11:28:38;;;;;;;;;;;;;;;11.29;100.00;100138.78;4502225;31;35773;-81
2022/11/09 11:31:42;;;;;;;;;;;;;;;10.92;100.00;100143.28;4512394;31;33982;-82
2022/11/09 11:34:47;;;;;;;;;;;;;;;11.03;100.00;100135.69;4502394;31;35244;-81
2022/11/09 11:38:16;;;;;;;;;;;;;;;10.78;100.00;100139.69;4475191;31;883496;-81
2022/11/09 11:41:24;;;;;;;;;;;;;;;11.17;100.00;100139.25;4511565;31;34962;-81
2022/11/09 11:44:41;;;;;;;;;;;;;;;10.92;100.00;100145.22;4512361;31;35966;-82
2022/11/09 11:47:55;;;;;;;;;;;;;;;11.15;100.00;100143.44;4511579;31;34945;-81
2022/11/09 11:51:06;;;;;;;;;;;;;;;11.19;100.00;100139.78;4511946;31;34086;-82
2022/11/09 11:54:14;;;;;;;;;;;;;;;11.33;100.00;100137.06;4490556;31;34963;-82
2022/11/09 11:57:37;;;;;;;;;;;;;;;11.19;100.00;100133.50;4511355;31;34778;-81
2022/11/09 12:00:46;;;;;;;;;;;;;;;11.10;100.00;100132.53;4511693;31;34814;-82
2022/11/09 12:03:55;;;;;;;;;;;;;;;11.19;100.00;100128.00;4511955;31;34937;-82
2022/11/09 12:07:02;;;;;;;;;;;;;;;11.22;100.00;100125.47;4502006;31;35551;-81
2022/11/09 12:10:07;;;;;;;;;;;;;;;11.42;100.00;100126.19;4511498;31;35776;-82
2022/11/09 12:13:15;;;;;;;;;;;;;;;11.36;100.00;100121.94;4511062;31;35736;-82
2022/11/09 12:16:32;;;;;;;;;;;;;;;10.88;100.00;100119.53;4501888;31;34127;-82
2022/11/09 12:19:43;;;;;;;;;;;;;;;10.91;100.00;100108.75;4511625;31;34513;-82
2022/11/09 12:23:14;;;;;;;;;;;;;;;11.25;100.00;100124.03;4500973;31;35939;-81
2022/11/09 12:26:25;;;;;;;;;;;;;;;11.43;100.00;100117.63;4511002;31;35341;-82
2022/11/09 12:29:46;;;;;;;;;;;;;;;11.24;100.00;100117.75;4502093;31;34110;-82
2022/11/09 12:32:55;;;;;;;;;;;;;;;11.47;100.00;100117.88;4500893;31;34955;-82
2022/11/09 12:36:01;;;;;;;;;;;;;;;11.73;100.00;100111.84;4501787;31;35101;-82
2022/11/09 12:39:26;;;;;;;;;;;;;;;11.08;100.00;100121.09;4510995;31;34865;-82
2022/11/09 12:43:00;;;;;;;;;;;;;;;11.25;100.00;100116.62;4511430;31;34878;-82
2022/11/09 12:46:05;;;;;;;;;;;;;;;11.28;100.00;100111.66;4511364;31;34794;-82
2022/11/09 12:49:14;;;;;;;;;;;;;;;11.40;100.00;100111.97;4492151;31;35208;-82
2022/11/09 12:52:21;;;;;;;;;;;;;;;11.30;100.00;100120.38;4502044;31;35752;-82
2022/11/09 12:55:28;;;;;;;;;;;;;;;11.40;100.00;100122.94;4511722;31;34160;-82
2022/11/09 12:58:33;;;;;;;;;;;;;;;11.72;100.00;100116.50;4511315;31;35005;-83
2022/11/09 13:01:38;;;;;;;;;;;;;;;11.17;100.00;100114.59;4501889;31;34932;-82
2022/11/09 13:04:52;;;;;;;;;;;;;;;11.72;100.00;100113.75;4490352;31;35292;-82
2022/11/09 13:08:00;;;;;;;;;;;;;;;11.50;100.00;100106.28;4501961;31;32711;-82
2022/11/09 13:11:09;;;;;;;;;;;;;;;11.75;100.00;100098.59;4490185;31;35767;-83
2022/11/09 13:14:30;;;;;;;;;;;;;;;11.23;100.00;100091.41;4501319;31;36077;-82
2022/11/09 13:17:38;;;;;;;;;;;;;;;11.60;100.00;100095.06;4511303;31;35651;-82
2022/11/09 13:20:42;;;;;;;;;;;;;;;11.27;100.00;100102.63;4513230;31;33640;-82
2022/11/09 13:24:21;;;;;;;;;;;;;;;11.21;100.00;100092.84;4505914;31;35602;-82
2022/11/09 13:27:35;;;;;;;;;;;;;;;11.65;100.00;100102.41;4513341;31;34747;-83
2022/11/09 13:30:41;;;;;;;;;;;;;;;11.63;100.00;100097.19;4503744;31;35397;-83
2022/11/09 13:33:45;;;;;;;;;;;;;;;11.39;100.00;100089.19;4503899;31;34863;-82
2022/11/09 13:37:09;;;;;;;;;;;;;;;10.85;100.00;100092.72;4513435;31;34597;-82
2022/11/09 13:40:29;;;;;;;;;;;;;;;11.13;100.00;100088.88;4513710;31;33961;-83
2022/11/09 13:43:35;;;;;;;;;;;;;;;11.15;100.00;100091.31;4513532;31;35606;-83
2022/11/09 13:46:39;;;;;;;;;;;;;;;11.31;100.00;100095.41;4496158;31;34869;-82
2022/11/09 13:49:45;;;;;;;;;;;;;;;11.56;100.00;100101.50;4490895;31;34676;-82
2022/11/09 13:52:51;;;;;;;;;;;;;;;11.51;100.00;100091.44;4496082;31;35213;-83
2022/11/09 13:55:55;;;;;;;;;;;;;;;11.44;100.00;100086.34;4488491;31;35545;-83
2022/11/09 13:59:05;;;;;;;;;;;;;;;11.54;100.00;100090.81;4496572;31;34175;-83
2022/11/09 14:02:20;;;;;;;;;;;;;;;11.77;100.00;100088.13;4491747;31;34514;-82
2022/11/09 14:05:32;;;;;;;;;;;;;;;11.72;100.00;100080.81;4482373;31;34774;-83
2022/11/09 14:08:36;;;;;;;;;;;;;;;11.71;100.00;100082.75;4489294;31;34978;-83
2022/11/09 14:11:47;;;;;;;;;;;;;;;11.70;100.00;100089.38;4492858;31;34109;-82
2022/11/09 14:14:57;;;;;;;;;;;;;;;11.45;100.00;100087.97;4494914;31;34893;-82
2022/11/09 14:18:21;;;;;;;;;;;;;;;11.65;100.00;100086.72;4491443;31;35718;-82
2022/11/09 14:21:34;;;;;;;;;;;;;;;11.64;100.00;100096.09;4493840;31;35078;-82
2022/11/09 14:24:39;;;;;;;;;;;;;;;11.46;100.00;100086.03;4496010;31;33865;-82
2022/11/09 14:27:47;;;;;;;;;;;;;;;11.74;100.00;100078.59;4494108;31;35817;-82
2022/11/09 14:30:52;;;;;;;;;;;;;;;11.75;100.00;100079.41;4492716;31;35143;-82
2022/11/09 14:34:00;;;;;;;;;;;;;;;11.69;100.00;100086.91;4489472;31;34976;-83
2022/11/09 14:37:05;;;;;;;;;;;;;;;11.79;100.00;100080.41;4492328;31;34919;-82
2022/11/09 14:40:26;;;;;;;;;;;;;;;11.82;100.00;100074.31;4495732;31;34649;-83
2022/11/09 14:43:35;;;;;;;;;;;;;;;11.55;100.00;100089.69;4493755;31;34711;-82
2022/11/09 14:46:40;;;;;;;;;;;;;;;11.44;100.00;100080.87;4494888;31;35814;-82